sensor_id;sensor_type;location;lat;lon;timestamp;temperature;humidity
20829;DHT22;10575;50.124;8.582;2023-04-28T00:01:41;13.00;97.00
20829;DHT22;10575;50.124;8.582;2023-04-28T00:04:07;13.00;97.00
20829;DHT22;10575;50.124;8.582;2023-04-28T00:06:32;13.00;97.50
20829;DHT22;10575;50.124;8.582;2023-04-28T00:08:58;13.00;97.70
20829;DHT22;10575;50.124;8.582;2023-04-28T00:11:24;13.10;97.90
20829;DHT22;10575;50.124;8.582;2023-04-28T00:13:49;13.20;97.70
20829;DHT22;10575;50.124;8.582;2023-04-28T00:16:16;13.20;98.00
20829;DHT22;10575;50.124;8.582;2023-04-28T00:18:41;13.30;97.60
20829;DHT22;10575;50.124;8.582;2023-04-28T00:21:06;13.40;97.70
20829;DHT22;10575;50.124;8.582;2023-04-28T00:23:32;13.60;96.20
20829;DHT22;10575;50.124;8.582;2023-04-28T00:25:58;13.60;97.10
20829;DHT22;10575;50.124;8.582;2023-04-28T00:28:23;13.60;96.90
20829;DHT22;10575;50.124;8.582;2023-04-28T00:30:49;13.60;96.70
20829;DHT22;10575;50.124;8.582;2023-04-28T00:33:15;13.70;97.30
20829;DHT22;10575;50.124;8.582;2023-04-28T00:35:40;13.60;96.60
20829;DHT22;10575;50.124;8.582;2023-04-28T00:38:06;13.70;96.90
20829;DHT22;10575;50.124;8.582;2023-04-28T00:40:36;13.70;97.10
20829;DHT22;10575;50.124;8.582;2023-04-28T00:43:03;13.70;97.40
20829;DHT22;10575;50.124;8.582;2023-04-28T00:45:29;13.60;97.60
20829;DHT22;10575;50.124;8.582;2023-04-28T00:47:55;13.50;97.90
20829;DHT22;10575;50.124;8.582;2023-04-28T00:50:24;13.40;98.60
20829;DHT22;10575;50.124;8.582;2023-04-28T00:52:51;13.40;98.30
20829;DHT22;10575;50.124;8.582;2023-04-28T00:55:17;13.30;98.70
20829;DHT22;10575;50.124;8.582;2023-04-28T00:57:43;13.40;98.60
20829;DHT22;10575;50.124;8.582;2023-04-28T01:00:09;13.50;98.40
20829;DHT22;10575;50.124;8.582;2023-04-28T01:02:35;13.60;98.70
20829;DHT22;10575;50.124;8.582;2023-04-28T01:05:01;13.60;98.70
20829;DHT22;10575;50.124;8.582;2023-04-28T01:07:27;13.50;98.70
20829;DHT22;10575;50.124;8.582;2023-04-28T01:09:54;13.40;99.40
20829;DHT22;10575;50.124;8.582;2023-04-28T01:12:19;13.20;99.60
20829;DHT22;10575;50.124;8.582;2023-04-28T01:14:45;13.20;99.90
20829;DHT22;10575;50.124;8.582;2023-04-28T01:17:11;13.20;99.90
20829;DHT22;10575;50.124;8.582;2023-04-28T01:19:37;13.30;99.90
20829;DHT22;10575;50.124;8.582;2023-04-28T01:22:03;13.40;99.90
20829;DHT22;10575;50.124;8.582;2023-04-28T01:24:29;13.40;99.90
20829;DHT22;10575;50.124;8.582;2023-04-28T01:26:55;13.50;99.90
20829;DHT22;10575;50.124;8.582;2023-04-28T01:29:20;13.50;99.90
20829;DHT22;10575;50.124;8.582;2023-04-28T01:31:46;13.40;99.90
20829;DHT22;10575;50.124;8.582;2023-04-28T01:34:11;13.30;99.90
20829;DHT22;10575;50.124;8.582;2023-04-28T01:36:37;13.30;99.90
20829;DHT22;10575;50.124;8.582;2023-04-28T01:39:03;13.20;99.90
20829;DHT22;10575;50.124;8.582;2023-04-28T01:41:29;13.20;99.90
20829;DHT22;10575;50.124;8.582;2023-04-28T01:43:54;13.20;99.90
20829;DHT22;10575;50.124;8.582;2023-04-28T01:46:20;13.20;99.90
20829;DHT22;10575;50.124;8.582;2023-04-28T01:48:45;13.10;99.90
20829;DHT22;10575;50.124;8.582;2023-04-28T01:51:12;13.10;99.90
20829;DHT22;10575;50.124;8.582;2023-04-28T01:53:37;13.00;99.90
20829;DHT22;10575;50.124;8.582;2023-04-28T01:56:03;13.00;99.90
20829;DHT22;10575;50.124;8.582;2023-04-28T01:58:28;13.00;99.90
20829;DHT22;10575;50.124;8.582;2023-04-28T02:00:54;13.00;99.90
20829;DHT22;10575;50.124;8.582;2023-04-28T02:03:19;13.10;99.90
20829;DHT22;10575;50.124;8.582;2023-04-28T02:05:45;13.10;99.90
20829;DHT22;10575;50.124;8.582;2023-04-28T02:08:10;13.10;99.90
20829;DHT22;10575;50.124;8.582;2023-04-28T02:10:36;13.20;99.90
20829;DHT22;10575;50.124;8.582;2023-04-28T02:13:01;13.20;99.90
20829;DHT22;10575;50.124;8.582;2023-04-28T02:15:27;13.00;99.90
20829;DHT22;10575;50.124;8.582;2023-04-28T02:17:52;12.80;99.90
20829;DHT22;10575;50.124;8.582;2023-04-28T02:20:18;12.60;99.90
20829;DHT22;10575;50.124;8.582;2023-04-28T02:22:43;12.50;99.90
20829;DHT22;10575;50.124;8.582;2023-04-28T02:25:09;12.50;99.90
20829;DHT22;10575;50.124;8.582;2023-04-28T02:27:35;12.40;99.90
20829;DHT22;10575;50.124;8.582;2023-04-28T02:30:04;12.50;99.90
20829;DHT22;10575;50.124;8.582;2023-04-28T02:32:31;12.40;99.90
20829;DHT22;10575;50.124;8.582;2023-04-28T02:34:56;12.30;99.90
20829;DHT22;10575;50.124;8.582;2023-04-28T02:37:22;12.30;99.90
20829;DHT22;10575;50.124;8.582;2023-04-28T02:39:47;12.30;99.90
20829;DHT22;10575;50.124;8.582;2023-04-28T02:42:13;12.50;99.90
20829;DHT22;10575;50.124;8.582;2023-04-28T02:44:39;12.70;99.90
20829;DHT22;10575;50.124;8.582;2023-04-28T02:47:04;12.70;99.90
20829;DHT22;10575;50.124;8.582;2023-04-28T02:49:30;12.80;99.90
20829;DHT22;10575;50.124;8.582;2023-04-28T02:51:55;12.80;99.90
20829;DHT22;10575;50.124;8.582;2023-04-28T02:54:21;12.80;99.90
20829;DHT22;10575;50.124;8.582;2023-04-28T02:56:55;12.80;99.90
20829;DHT22;10575;50.124;8.582;2023-04-28T02:59:22;12.70;99.90
20829;DHT22;10575;50.124;8.582;2023-04-28T03:01:48;12.60;99.90
20829;DHT22;10575;50.124;8.582;2023-04-28T03:04:14;12.60;99.90
20829;DHT22;10575;50.124;8.582;2023-04-28T03:06:40;12.60;99.90
20829;DHT22;10575;50.124;8.582;2023-04-28T03:09:07;12.60;99.90
20829;DHT22;10575;50.124;8.582;2023-04-28T03:11:33;12.50;99.90
20829;DHT22;10575;50.124;8.582;2023-04-28T03:13:58;12.50;99.90
20829;DHT22;10575;50.124;8.582;2023-04-28T03:16:24;12.40;99.90
20829;DHT22;10575;50.124;8.582;2023-04-28T03:18:49;12.40;99.90
20829;DHT22;10575;50.124;8.582;2023-04-28T03:21:15;12.40;99.90
20829;DHT22;10575;50.124;8.582;2023-04-28T03:23:40;12.30;99.90
20829;DHT22;10575;50.124;8.582;2023-04-28T03:26:06;12.30;99.90
20829;DHT22;10575;50.124;8.582;2023-04-28T03:28:32;12.20;99.90
20829;DHT22;10575;50.124;8.582;2023-04-28T03:30:57;12.20;99.90
20829;DHT22;10575;50.124;8.582;2023-04-28T03:33:23;12.20;99.90
20829;DHT22;10575;50.124;8.582;2023-04-28T03:35:48;12.20;99.90
20829;DHT22;10575;50.124;8.582;2023-04-28T03:38:14;12.20;99.90
20829;DHT22;10575;50.124;8.582;2023-04-28T03:40:39;12.20;99.90
20829;DHT22;10575;50.124;8.582;2023-04-28T03:43:05;12.20;99.90
20829;DHT22;10575;50.124;8.582;2023-04-28T03:45:31;12.30;99.90
20829;DHT22;10575;50.124;8.582;2023-04-28T03:47:57;12.60;99.90
20829;DHT22;10575;50.124;8.582;2023-04-28T03:50:22;12.70;99.90
20829;DHT22;10575;50.124;8.582;2023-04-28T03:52:48;12.90;99.90
20829;DHT22;10575;50.124;8.582;2023-04-28T03:55:13;13.00;99.90
20829;DHT22;10575;50.124;8.582;2023-04-28T03:57:39;13.20;99.90
20829;DHT22;10575;50.124;8.582;2023-04-28T04:00:05;13.30;99.90
20829;DHT22;10575;50.124;8.582;2023-04-28T04:02:30;13.30;99.90
20829;DHT22;10575;50.124;8.582;2023-04-28T04:04:56;13.40;99.90
20829;DHT22;10575;50.124;8.582;2023-04-28T04:07:22;13.20;99.90
20829;DHT22;10575;50.124;8.582;2023-04-28T04:09:47;13.20;99.90
20829;DHT22;10575;50.124;8.582;2023-04-28T04:12:13;13.10;99.90
20829;DHT22;10575;50.124;8.582;2023-04-28T04:14:38;13.00;99.90
20829;DHT22;10575;50.124;8.582;2023-04-28T04:17:04;12.80;99.90
20829;DHT22;10575;50.124;8.582;2023-04-28T04:19:30;12.70;99.90
20829;DHT22;10575;50.124;8.582;2023-04-28T04:21:56;12.80;99.90
20829;DHT22;10575;50.124;8.582;2023-04-28T04:24:21;12.70;99.90
20829;DHT22;10575;50.124;8.582;2023-04-28T04:26:47;12.60;99.90
20829;DHT22;10575;50.124;8.582;2023-04-28T04:29:12;12.60;99.90
20829;DHT22;10575;50.124;8.582;2023-04-28T04:31:38;12.60;99.90
20829;DHT22;10575;50.124;8.582;2023-04-28T04:34:03;12.60;99.90
20829;DHT22;10575;50.124;8.582;2023-04-28T04:36:29;12.50;99.90
20829;DHT22;10575;50.124;8.582;2023-04-28T04:38:55;12.30;99.90
20829;DHT22;10575;50.124;8.582;2023-04-28T04:41:21;12.30;99.90
20829;DHT22;10575;50.124;8.582;2023-04-28T04:43:47;12.40;99.90
20829;DHT22;10575;50.124;8.582;2023-04-28T04:46:13;12.50;99.90
20829;DHT22;10575;50.124;8.582;2023-04-28T04:48:39;12.40;99.90
20829;DHT22;10575;50.124;8.582;2023-04-28T04:51:04;12.30;99.90
20829;DHT22;10575;50.124;8.582;2023-04-28T04:53:30;12.20;99.90
20829;DHT22;10575;50.124;8.582;2023-04-28T04:55:55;12.10;99.90
20829;DHT22;10575;50.124;8.582;2023-04-28T04:58:21;12.10;99.90
20829;DHT22;10575;50.124;8.582;2023-04-28T05:00:46;12.00;99.90
20829;DHT22;10575;50.124;8.582;2023-04-28T05:03:12;11.90;99.90
20829;DHT22;10575;50.124;8.582;2023-04-28T05:05:38;11.90;99.90
20829;DHT22;10575;50.124;8.582;2023-04-28T05:08:04;11.80;99.90
20829;DHT22;10575;50.124;8.582;2023-04-28T05:10:30;11.70;99.90
20829;DHT22;10575;50.124;8.582;2023-04-28T05:12:55;11.70;99.90
20829;DHT22;10575;50.124;8.582;2023-04-28T05:15:21;11.70;99.90
20829;DHT22;10575;50.124;8.582;2023-04-28T05:17:46;11.60;99.90
20829;DHT22;10575;50.124;8.582;2023-04-28T05:20:12;11.60;99.90
20829;DHT22;10575;50.124;8.582;2023-04-28T05:22:38;11.60;99.90
20829;DHT22;10575;50.124;8.582;2023-04-28T05:25:03;11.60;99.90
20829;DHT22;10575;50.124;8.582;2023-04-28T05:27:29;11.60;99.90
20829;DHT22;10575;50.124;8.582;2023-04-28T05:29:55;11.60;99.90
20829;DHT22;10575;50.124;8.582;2023-04-28T05:32:20;11.60;99.90
20829;DHT22;10575;50.124;8.582;2023-04-28T05:34:46;11.60;99.90
20829;DHT22;10575;50.124;8.582;2023-04-28T05:37:11;11.60;99.90
20829;DHT22;10575;50.124;8.582;2023-04-28T05:39:37;11.60;99.90
20829;DHT22;10575;50.124;8.582;2023-04-28T05:42:02;11.60;99.90
20829;DHT22;10575;50.124;8.582;2023-04-28T05:44:29;11.90;99.90
20829;DHT22;10575;50.124;8.582;2023-04-28T05:46:55;12.10;99.90
20829;DHT22;10575;50.124;8.582;2023-04-28T05:49:20;12.10;99.90
20829;DHT22;10575;50.124;8.582;2023-04-28T05:51:46;12.10;99.90
20829;DHT22;10575;50.124;8.582;2023-04-28T05:54:11;12.00;99.90
20829;DHT22;10575;50.124;8.582;2023-04-28T05:56:37;11.80;99.90
20829;DHT22;10575;50.124;8.582;2023-04-28T05:59:03;11.80;99.90
20829;DHT22;10575;50.124;8.582;2023-04-28T06:01:30;11.80;99.90
20829;DHT22;10575;50.124;8.582;2023-04-28T06:03:56;11.80;99.90
20829;DHT22;10575;50.124;8.582;2023-04-28T06:06:23;11.80;99.90
20829;DHT22;10575;50.124;8.582;2023-04-28T06:08:49;11.80;99.90
20829;DHT22;10575;50.124;8.582;2023-04-28T06:11:14;11.80;99.90
20829;DHT22;10575;50.124;8.582;2023-04-28T06:13:40;11.90;99.90
20829;DHT22;10575;50.124;8.582;2023-04-28T06:16:06;11.90;99.90
20829;DHT22;10575;50.124;8.582;2023-04-28T06:18:32;11.80;99.90
20829;DHT22;10575;50.124;8.582;2023-04-28T06:20:57;11.70;99.90
20829;DHT22;10575;50.124;8.582;2023-04-28T06:23:23;11.50;99.90
20829;DHT22;10575;50.124;8.582;2023-04-28T06:25:49;11.30;99.90
20829;DHT22;10575;50.124;8.582;2023-04-28T06:28:14;11.40;99.90
20829;DHT22;10575;50.124;8.582;2023-04-28T06:30:40;11.40;99.90
20829;DHT22;10575;50.124;8.582;2023-04-28T06:33:06;11.60;99.90
20829;DHT22;10575;50.124;8.582;2023-04-28T06:35:32;11.70;99.90
20829;DHT22;10575;50.124;8.582;2023-04-28T06:38:01;11.50;99.90
20829;DHT22;10575;50.124;8.582;2023-04-28T06:40:26;11.40;99.90
20829;DHT22;10575;50.124;8.582;2023-04-28T06:42:52;11.40;99.90
20829;DHT22;10575;50.124;8.582;2023-04-28T06:45:17;11.50;99.90
20829;DHT22;10575;50.124;8.582;2023-04-28T06:47:43;11.70;99.90
20829;DHT22;10575;50.124;8.582;2023-04-28T06:50:09;11.80;99.90
20829;DHT22;10575;50.124;8.582;2023-04-28T06:52:34;11.90;99.90
20829;DHT22;10575;50.124;8.582;2023-04-28T06:55:00;11.80;99.90
20829;DHT22;10575;50.124;8.582;2023-04-28T06:57:26;11.80;99.90
20829;DHT22;10575;50.124;8.582;2023-04-28T06:59:51;11.80;99.90
20829;DHT22;10575;50.124;8.582;2023-04-28T07:02:17;12.00;99.90
20829;DHT22;10575;50.124;8.582;2023-04-28T07:04:42;12.20;99.90
20829;DHT22;10575;50.124;8.582;2023-04-28T07:07:08;12.10;99.90
20829;DHT22;10575;50.124;8.582;2023-04-28T07:09:34;12.10;99.90
20829;DHT22;10575;50.124;8.582;2023-04-28T07:12:00;12.00;99.90
20829;DHT22;10575;50.124;8.582;2023-04-28T07:14:26;11.90;99.90
20829;DHT22;10575;50.124;8.582;2023-04-28T07:16:51;11.70;99.90
20829;DHT22;10575;50.124;8.582;2023-04-28T07:19:17;11.50;99.90
20829;DHT22;10575;50.124;8.582;2023-04-28T07:21:42;11.40;99.90
20829;DHT22;10575;50.124;8.582;2023-04-28T07:24:08;11.40;99.90
20829;DHT22;10575;50.124;8.582;2023-04-28T07:26:34;11.40;99.90
20829;DHT22;10575;50.124;8.582;2023-04-28T07:28:59;11.30;99.90
20829;DHT22;10575;50.124;8.582;2023-04-28T07:31:25;11.20;99.90
20829;DHT22;10575;50.124;8.582;2023-04-28T07:33:51;11.20;99.90
20829;DHT22;10575;50.124;8.582;2023-04-28T07:36:16;11.20;99.90
20829;DHT22;10575;50.124;8.582;2023-04-28T07:38:42;11.30;99.90
20829;DHT22;10575;50.124;8.582;2023-04-28T07:41:07;11.50;99.90
20829;DHT22;10575;50.124;8.582;2023-04-28T07:43:33;11.50;99.90
20829;DHT22;10575;50.124;8.582;2023-04-28T07:45:58;11.50;99.90
20829;DHT22;10575;50.124;8.582;2023-04-28T07:48:24;11.60;99.90
20829;DHT22;10575;50.124;8.582;2023-04-28T07:50:51;11.70;99.90
20829;DHT22;10575;50.124;8.582;2023-04-28T07:53:17;11.70;99.90
20829;DHT22;10575;50.124;8.582;2023-04-28T07:55:42;11.90;99.90
20829;DHT22;10575;50.124;8.582;2023-04-28T07:58:10;12.10;99.90
20829;DHT22;10575;50.124;8.582;2023-04-28T08:00:36;12.30;99.90
20829;DHT22;10575;50.124;8.582;2023-04-28T08:03:02;12.40;99.90
20829;DHT22;10575;50.124;8.582;2023-04-28T08:05:28;12.50;99.90
20829;DHT22;10575;50.124;8.582;2023-04-28T08:07:54;12.60;99.90
20829;DHT22;10575;50.124;8.582;2023-04-28T08:10:19;12.90;99.90
20829;DHT22;10575;50.124;8.582;2023-04-28T08:12:45;13.00;99.90
20829;DHT22;10575;50.124;8.582;2023-04-28T08:15:11;13.00;99.90
20829;DHT22;10575;50.124;8.582;2023-04-28T08:17:36;12.90;99.90
20829;DHT22;10575;50.124;8.582;2023-04-28T08:20:02;12.80;99.90
20829;DHT22;10575;50.124;8.582;2023-04-28T08:22:28;12.60;99.90
20829;DHT22;10575;50.124;8.582;2023-04-28T08:24:53;12.30;99.90
20829;DHT22;10575;50.124;8.582;2023-04-28T08:27:19;12.20;99.90
20829;DHT22;10575;50.124;8.582;2023-04-28T08:29:44;12.20;99.90
20829;DHT22;10575;50.124;8.582;2023-04-28T08:32:10;12.00;99.90
20829;DHT22;10575;50.124;8.582;2023-04-28T08:34:36;11.90;99.90
20829;DHT22;10575;50.124;8.582;2023-04-28T08:37:01;11.90;99.90
20829;DHT22;10575;50.124;8.582;2023-04-28T08:39:27;11.90;99.90
20829;DHT22;10575;50.124;8.582;2023-04-28T08:41:53;11.90;99.90
20829;DHT22;10575;50.124;8.582;2023-04-28T08:44:19;11.90;99.90
20829;DHT22;10575;50.124;8.582;2023-04-28T08:46:45;11.90;99.90
20829;DHT22;10575;50.124;8.582;2023-04-28T08:49:15;12.00;99.90
20829;DHT22;10575;50.124;8.582;2023-04-28T08:52:04;12.00;99.90
20829;DHT22;10575;50.124;8.582;2023-04-28T08:54:35;12.10;99.90
20829;DHT22;10575;50.124;8.582;2023-04-28T08:57:01;12.20;99.90
20829;DHT22;10575;50.124;8.582;2023-04-28T08:59:26;12.30;99.90
20829;DHT22;10575;50.124;8.582;2023-04-28T09:01:52;12.50;99.90
20829;DHT22;10575;50.124;8.582;2023-04-28T09:04:18;12.70;99.90
20829;DHT22;10575;50.124;8.582;2023-04-28T09:06:44;12.90;99.90
20829;DHT22;10575;50.124;8.582;2023-04-28T09:09:23;13.00;99.90
20829;DHT22;10575;50.124;8.582;2023-04-28T09:11:53;12.90;99.90
20829;DHT22;10575;50.124;8.582;2023-04-28T09:14:20;12.90;99.90
20829;DHT22;10575;50.124;8.582;2023-04-28T09:16:46;13.00;99.90
20829;DHT22;10575;50.124;8.582;2023-04-28T09:19:12;13.20;99.90
20829;DHT22;10575;50.124;8.582;2023-04-28T09:21:51;13.40;99.90
20829;DHT22;10575;50.124;8.582;2023-04-28T09:24:34;13.70;99.90
20829;DHT22;10575;50.124;8.582;2023-04-28T09:27:02;13.80;99.90
20829;DHT22;10575;50.124;8.582;2023-04-28T09:29:29;14.00;99.90
20829;DHT22;10575;50.124;8.582;2023-04-28T09:32:16;14.20;99.90
20829;DHT22;10575;50.124;8.582;2023-04-28T09:34:50;14.40;99.90
20829;DHT22;10575;50.124;8.582;2023-04-28T09:37:19;14.80;99.90
20829;DHT22;10575;50.124;8.582;2023-04-28T09:39:46;15.20;99.90
20829;DHT22;10575;50.124;8.582;2023-04-28T09:42:40;15.70;99.90
20829;DHT22;10575;50.124;8.582;2023-04-28T09:45:08;16.20;99.90
20829;DHT22;10575;50.124;8.582;2023-04-28T09:47:37;16.10;99.90
20829;DHT22;10575;50.124;8.582;2023-04-28T09:50:04;16.00;99.90
20829;DHT22;10575;50.124;8.582;2023-04-28T09:52:32;15.80;99.90
20829;DHT22;10575;50.124;8.582;2023-04-28T09:55:03;15.80;99.90
20829;DHT22;10575;50.124;8.582;2023-04-28T09:57:31;16.20;99.90
20829;DHT22;10575;50.124;8.582;2023-04-28T09:59:57;16.80;99.90
20829;DHT22;10575;50.124;8.582;2023-04-28T10:02:23;17.30;99.90
20829;DHT22;10575;50.124;8.582;2023-04-28T10:04:50;17.40;99.90
20829;DHT22;10575;50.124;8.582;2023-04-28T10:07:19;17.30;99.90
20829;DHT22;10575;50.124;8.582;2023-04-28T10:09:51;17.10;99.90
20829;DHT22;10575;50.124;8.582;2023-04-28T10:12:18;17.00;99.90
20829;DHT22;10575;50.124;8.582;2023-04-28T10:14:45;17.20;99.90
20829;DHT22;10575;50.124;8.582;2023-04-28T10:17:18;17.40;99.90
20829;DHT22;10575;50.124;8.582;2023-04-28T10:19:45;17.60;99.90
20829;DHT22;10575;50.124;8.582;2023-04-28T10:22:28;17.80;99.90
20829;DHT22;10575;50.124;8.582;2023-04-28T10:27:44;18.30;99.90
20829;DHT22;10575;50.124;8.582;2023-04-28T10:30:12;18.40;99.90
20829;DHT22;10575;50.124;8.582;2023-04-28T10:32:39;18.30;99.90
20829;DHT22;10575;50.124;8.582;2023-04-28T10:38:11;18.50;99.90
20829;DHT22;10575;50.124;8.582;2023-04-28T10:40:41;18.40;99.90
20829;DHT22;10575;50.124;8.582;2023-04-28T10:43:08;18.50;99.90
20829;DHT22;10575;50.124;8.582;2023-04-28T10:58:49;19.30;99.90
20829;DHT22;10575;50.124;8.582;2023-04-28T11:06:23;19.60;99.90
20829;DHT22;10575;50.124;8.582;2023-04-28T11:08:59;19.60;99.90
20829;DHT22;10575;50.124;8.582;2023-04-28T11:11:30;19.30;99.90
20829;DHT22;10575;50.124;8.582;2023-04-28T11:16:55;19.60;99.90
20829;DHT22;10575;50.124;8.582;2023-04-28T11:19:58;19.40;99.90
20829;DHT22;10575;50.124;8.582;2023-04-28T11:22:21;19.30;99.90
20829;DHT22;10575;50.124;8.582;2023-04-28T11:24:58;19.20;99.90
20829;DHT22;10575;50.124;8.582;2023-04-28T11:27:28;18.90;99.90
20829;DHT22;10575;50.124;8.582;2023-04-28T11:29:54;18.90;99.90
20829;DHT22;10575;50.124;8.582;2023-04-28T11:32:33;19.10;99.90
20829;DHT22;10575;50.124;8.582;2023-04-28T11:34:59;19.40;99.90
20829;DHT22;10575;50.124;8.582;2023-04-28T11:37:25;19.40;99.90
20829;DHT22;10575;50.124;8.582;2023-04-28T11:39:51;19.50;99.90
20829;DHT22;10575;50.124;8.582;2023-04-28T11:42:17;19.70;99.90
20829;DHT22;10575;50.124;8.582;2023-04-28T11:44:49;20.00;99.90
20829;DHT22;10575;50.124;8.582;2023-04-28T11:47:30;20.00;99.90
20829;DHT22;10575;50.124;8.582;2023-04-28T11:49:56;20.00;99.90
20829;DHT22;10575;50.124;8.582;2023-04-28T11:52:22;19.90;99.90
20829;DHT22;10575;50.124;8.582;2023-04-28T11:54:53;19.70;99.90
20829;DHT22;10575;50.124;8.582;2023-04-28T11:57:20;19.40;99.90
20829;DHT22;10575;50.124;8.582;2023-04-28T11:59:46;18.90;99.90
20829;DHT22;10575;50.124;8.582;2023-04-28T12:02:11;18.70;99.90
20829;DHT22;10575;50.124;8.582;2023-04-28T12:04:41;18.70;99.90
20829;DHT22;10575;50.124;8.582;2023-04-28T12:07:13;18.80;99.90
20829;DHT22;10575;50.124;8.582;2023-04-28T12:09:41;19.00;99.90
20829;DHT22;10575;50.124;8.582;2023-04-28T12:12:12;19.30;99.90
20829;DHT22;10575;50.124;8.582;2023-04-28T12:14:58;19.50;99.90
20829;DHT22;10575;50.124;8.582;2023-04-28T12:17:26;19.60;99.90
20829;DHT22;10575;50.124;8.582;2023-04-28T12:19:53;19.60;99.90
20829;DHT22;10575;50.124;8.582;2023-04-28T12:22:20;19.70;99.90
20829;DHT22;10575;50.124;8.582;2023-04-28T12:25:01;19.70;99.90
20829;DHT22;10575;50.124;8.582;2023-04-28T12:27:26;19.60;99.90
20829;DHT22;10575;50.124;8.582;2023-04-28T12:29:53;19.50;99.90
20829;DHT22;10575;50.124;8.582;2023-04-28T12:32:39;19.80;99.90
20829;DHT22;10575;50.124;8.582;2023-04-28T12:35:06;19.80;99.90
20829;DHT22;10575;50.124;8.582;2023-04-28T12:37:32;19.80;99.90
20829;DHT22;10575;50.124;8.582;2023-04-28T12:39:57;19.90;99.90
20829;DHT22;10575;50.124;8.582;2023-04-28T12:42:23;19.80;99.90
20829;DHT22;10575;50.124;8.582;2023-04-28T12:44:49;19.60;99.90
20829;DHT22;10575;50.124;8.582;2023-04-28T12:47:15;19.50;99.90
20829;DHT22;10575;50.124;8.582;2023-04-28T12:49:43;19.40;99.90
20829;DHT22;10575;50.124;8.582;2023-04-28T12:52:09;19.40;99.90
20829;DHT22;10575;50.124;8.582;2023-04-28T12:54:35;19.20;99.90
20829;DHT22;10575;50.124;8.582;2023-04-28T12:57:01;19.10;99.90
20829;DHT22;10575;50.124;8.582;2023-04-28T12:59:27;19.00;99.90
20829;DHT22;10575;50.124;8.582;2023-04-28T13:01:53;18.90;99.90
20829;DHT22;10575;50.124;8.582;2023-04-28T13:04:20;18.90;99.90
20829;DHT22;10575;50.124;8.582;2023-04-28T13:06:46;18.80;99.90
20829;DHT22;10575;50.124;8.582;2023-04-28T13:09:13;18.80;99.90
20829;DHT22;10575;50.124;8.582;2023-04-28T13:11:42;19.00;99.90
20829;DHT22;10575;50.124;8.582;2023-04-28T13:14:08;18.90;99.90
20829;DHT22;10575;50.124;8.582;2023-04-28T13:16:34;18.90;99.90
20829;DHT22;10575;50.124;8.582;2023-04-28T13:19:00;18.90;99.90
20829;DHT22;10575;50.124;8.582;2023-04-28T13:21:26;18.90;99.90
20829;DHT22;10575;50.124;8.582;2023-04-28T13:23:55;19.00;99.90
20829;DHT22;10575;50.124;8.582;2023-04-28T13:26:21;19.30;99.90
20829;DHT22;10575;50.124;8.582;2023-04-28T13:28:51;19.40;99.90
20829;DHT22;10575;50.124;8.582;2023-04-28T13:31:17;19.50;99.90
20829;DHT22;10575;50.124;8.582;2023-04-28T13:33:43;19.40;99.90
20829;DHT22;10575;50.124;8.582;2023-04-28T13:36:08;19.50;99.90
20829;DHT22;10575;50.124;8.582;2023-04-28T13:38:34;19.50;99.90
20829;DHT22;10575;50.124;8.582;2023-04-28T13:41:00;19.60;99.90
20829;DHT22;10575;50.124;8.582;2023-04-28T13:43:26;19.70;99.90
20829;DHT22;10575;50.124;8.582;2023-04-28T13:45:52;19.80;99.90
20829;DHT22;10575;50.124;8.582;2023-04-28T13:48:17;19.90;99.90
20829;DHT22;10575;50.124;8.582;2023-04-28T13:50:43;20.00;99.90
20829;DHT22;10575;50.124;8.582;2023-04-28T13:53:08;20.10;99.90
20829;DHT22;10575;50.124;8.582;2023-04-28T13:55:34;20.00;99.90
20829;DHT22;10575;50.124;8.582;2023-04-28T13:58:00;19.90;99.90
20829;DHT22;10575;50.124;8.582;2023-04-28T14:00:32;20.00;99.90
20829;DHT22;10575;50.124;8.582;2023-04-28T14:02:58;19.90;99.90
20829;DHT22;10575;50.124;8.582;2023-04-28T14:05:25;20.00;99.90
20829;DHT22;10575;50.124;8.582;2023-04-28T14:07:54;19.80;99.90
20829;DHT22;10575;50.124;8.582;2023-04-28T14:10:21;19.70;99.90
20829;DHT22;10575;50.124;8.582;2023-04-28T14:12:47;19.60;99.90
20829;DHT22;10575;50.124;8.582;2023-04-28T14:15:13;19.80;99.90
20829;DHT22;10575;50.124;8.582;2023-04-28T14:17:38;19.80;99.90
20829;DHT22;10575;50.124;8.582;2023-04-28T14:20:04;19.90;99.90
20829;DHT22;10575;50.124;8.582;2023-04-28T14:22:30;20.00;99.90
20829;DHT22;10575;50.124;8.582;2023-04-28T14:24:55;20.00;99.90
20829;DHT22;10575;50.124;8.582;2023-04-28T14:27:21;19.90;99.90
20829;DHT22;10575;50.124;8.582;2023-04-28T14:29:47;19.90;99.90
20829;DHT22;10575;50.124;8.582;2023-04-28T14:32:14;19.90;99.90
20829;DHT22;10575;50.124;8.582;2023-04-28T14:34:41;19.70;99.90
20829;DHT22;10575;50.124;8.582;2023-04-28T14:37:07;19.70;99.90
20829;DHT22;10575;50.124;8.582;2023-04-28T14:39:33;20.00;99.90
20829;DHT22;10575;50.124;8.582;2023-04-28T14:41:59;20.10;99.90
20829;DHT22;10575;50.124;8.582;2023-04-28T14:44:24;20.20;99.90
20829;DHT22;10575;50.124;8.582;2023-04-28T14:46:50;20.20;99.90
20829;DHT22;10575;50.124;8.582;2023-04-28T14:49:16;20.10;99.90
20829;DHT22;10575;50.124;8.582;2023-04-28T14:51:41;19.90;99.90
20829;DHT22;10575;50.124;8.582;2023-04-28T14:54:08;19.80;99.90
20829;DHT22;10575;50.124;8.582;2023-04-28T14:56:33;19.90;99.90
20829;DHT22;10575;50.124;8.582;2023-04-28T14:58:59;19.70;99.90
20829;DHT22;10575;50.124;8.582;2023-04-28T15:01:24;19.60;99.90
20829;DHT22;10575;50.124;8.582;2023-04-28T15:03:50;19.50;99.90
20829;DHT22;10575;50.124;8.582;2023-04-28T15:06:16;19.50;99.90
20829;DHT22;10575;50.124;8.582;2023-04-28T15:08:41;19.60;99.90
20829;DHT22;10575;50.124;8.582;2023-04-28T15:11:07;19.70;99.90
20829;DHT22;10575;50.124;8.582;2023-04-28T15:13:33;19.80;99.90
20829;DHT22;10575;50.124;8.582;2023-04-28T15:15:58;19.90;99.90
20829;DHT22;10575;50.124;8.582;2023-04-28T15:18:24;19.80;99.90
20829;DHT22;10575;50.124;8.582;2023-04-28T15:20:50;19.70;99.90
20829;DHT22;10575;50.124;8.582;2023-04-28T15:23:15;19.60;99.90
20829;DHT22;10575;50.124;8.582;2023-04-28T15:25:41;19.50;99.90
20829;DHT22;10575;50.124;8.582;2023-04-28T15:28:07;19.40;99.90
20829;DHT22;10575;50.124;8.582;2023-04-28T15:30:33;19.40;99.90
20829;DHT22;10575;50.124;8.582;2023-04-28T15:32:59;19.20;99.90
20829;DHT22;10575;50.124;8.582;2023-04-28T15:35:24;19.30;99.90
20829;DHT22;10575;50.124;8.582;2023-04-28T15:37:50;19.40;99.90
20829;DHT22;10575;50.124;8.582;2023-04-28T15:40:20;19.40;99.90
20829;DHT22;10575;50.124;8.582;2023-04-28T15:42:46;19.30;99.90
20829;DHT22;10575;50.124;8.582;2023-04-28T15:45:16;19.20;99.90
20829;DHT22;10575;50.124;8.582;2023-04-28T15:47:43;19.10;99.90
20829;DHT22;10575;50.124;8.582;2023-04-28T15:50:10;19.00;99.90
20829;DHT22;10575;50.124;8.582;2023-04-28T15:52:42;19.00;99.90
20829;DHT22;10575;50.124;8.582;2023-04-28T15:55:21;18.80;99.90